createdAt,value
2019-01-25T00:02:13.964Z,55.12
2019-01-25T00:04:42.240Z,56.10
2019-01-25T00:07:10.492Z,53.95
2019-01-25T00:09:38.737Z,54.03
2019-01-25T00:12:07.013Z,55.30
2019-01-25T00:14:35.228Z,55.70
2019-01-25T00:17:03.529Z,56.70
2019-01-25T00:19:31.789Z,57.57
2019-01-25T00:22:00.028Z,56.58
2019-01-25T00:24:28.263Z,56.75
2019-01-25T00:26:56.549Z,56.48
2019-01-25T00:29:24.785Z,57.45
2019-01-25T00:31:53.013Z,55.20
2019-01-25T00:34:21.281Z,56.95
2019-01-25T00:36:49.524Z,55.85
2019-01-25T00:39:17.756Z,57.50
2019-01-25T00:41:46.024Z,57.45
2019-01-25T00:44:14.270Z,56.37
2019-01-25T00:46:42.527Z,60.40
2019-01-25T00:49:10.800Z,58.68
2019-01-25T00:51:39.023Z,60.83
2019-01-25T00:54:07.276Z,59.70
2019-01-25T00:56:35.539Z,57.73
2019-01-25T00:59:03.826Z,59.23
2019-01-25T01:01:32.046Z,57.67
2019-01-25T01:04:00.317Z,59.53
2019-01-25T01:06:28.545Z,59.73
2019-01-25T01:08:56.844Z,59.48
2019-01-25T01:11:25.106Z,58.40
2019-01-25T01:13:53.344Z,59.60
2019-01-25T01:16:21.620Z,59.47
2019-01-25T01:18:49.877Z,58.60
2019-01-25T01:21:18.124Z,57.33
2019-01-25T01:23:46.355Z,57.03
2019-01-25T01:26:14.624Z,56.80
2019-01-25T01:28:42.852Z,57.08
2019-01-25T01:31:11.098Z,56.08
2019-01-25T01:33:39.373Z,55.30
2019-01-25T01:36:07.608Z,54.05
2019-01-25T01:38:35.846Z,54.88
2019-01-25T01:41:04.119Z,53.33
2019-01-25T01:43:32.359Z,53.08
2019-01-25T01:46:00.596Z,52.60
2019-01-25T01:48:28.849Z,51.92
2019-01-25T01:50:57.093Z,51.83
2019-01-25T01:53:25.332Z,53.00
2019-01-25T01:55:53.594Z,52.48
2019-01-25T01:58:21.830Z,52.58
2019-01-25T02:00:50.089Z,52.25
2019-01-25T02:03:18.350Z,52.62
2019-01-25T02:05:47.555Z,53.13
2019-01-25T02:08:15.780Z,52.60
2019-01-25T02:10:44.048Z,52.98
2019-01-25T02:13:13.117Z,53.70
2019-01-25T02:15:41.345Z,53.13
2019-01-25T02:18:09.594Z,54.60
2019-01-25T02:20:37.823Z,55.63
2019-01-25T02:23:06.034Z,53.58
2019-01-25T02:25:34.942Z,54.23
2019-01-25T02:28:03.143Z,55.10
2019-01-25T02:30:31.362Z,55.60
2019-01-25T02:32:59.591Z,54.63
2019-01-25T02:35:27.790Z,52.98
2019-01-25T02:37:56.042Z,52.88
2019-01-25T02:40:24.454Z,53.08
2019-01-25T02:42:52.677Z,53.65
2019-01-25T02:45:20.900Z,55.17
2019-01-25T02:47:49.127Z,53.85
2019-01-25T02:50:18.684Z,52.73
2019-01-25T02:52:46.911Z,53.93
2019-01-25T02:55:15.890Z,55.20
2019-01-25T02:57:44.171Z,54.83
2019-01-25T03:00:15.530Z,52.95
2019-01-25T03:02:43.771Z,53.08
2019-01-25T03:05:12.056Z,55.10
2019-01-25T03:07:40.265Z,56.00
2019-01-25T03:10:14.206Z,53.98
2019-01-25T03:12:42.425Z,55.73
2019-01-25T03:15:16.611Z,54.83
2019-01-25T03:17:44.880Z,54.95
2019-01-25T03:20:14.627Z,54.33
2019-01-25T03:22:42.830Z,55.17
2019-01-25T03:25:14.075Z,56.50
2019-01-25T03:27:42.296Z,55.25
2019-01-25T03:30:13.779Z,54.88
2019-01-25T03:32:42.044Z,55.08
2019-01-25T03:35:11.995Z,54.98
2019-01-25T03:37:40.566Z,54.95
2019-01-25T03:40:14.719Z,54.80
2019-01-25T03:42:42.930Z,54.77
2019-01-25T03:45:13.096Z,55.43
2019-01-25T03:47:41.338Z,56.73
2019-01-25T03:50:13.132Z,55.80
2019-01-25T03:52:41.354Z,56.50
2019-01-25T03:55:11.710Z,57.33
2019-01-25T03:57:39.934Z,55.80
2019-01-25T04:00:28.525Z,56.45
2019-01-25T04:02:56.746Z,55.65
2019-01-25T04:05:24.971Z,55.40
2019-01-25T04:07:53.191Z,57.13
2019-01-25T04:10:26.151Z,54.83
2019-01-25T04:12:54.356Z,57.80
2019-01-25T04:15:28.067Z,58.25
2019-01-25T04:17:56.291Z,59.03
2019-01-25T04:20:24.496Z,56.63
2019-01-25T04:22:52.757Z,56.90
2019-01-25T04:25:22.261Z,57.60
2019-01-25T04:27:50.654Z,55.95
2019-01-25T04:30:23.941Z,56.48
2019-01-25T04:32:52.159Z,58.30
2019-01-25T04:35:20.366Z,57.35
2019-01-25T04:37:48.613Z,57.90
2019-01-25T04:40:18.055Z,55.67
2019-01-25T04:42:46.333Z,59.38
2019-01-25T04:45:16.932Z,58.38
2019-01-25T04:47:45.140Z,57.38
2019-01-25T04:50:15.597Z,57.55
2019-01-25T04:52:43.843Z,57.90
2019-01-25T04:55:22.648Z,56.02
2019-01-25T04:57:50.887Z,56.23
2019-01-25T05:00:23.537Z,56.10
2019-01-25T05:02:59.451Z,57.85
2019-01-25T05:05:28.219Z,56.30
2019-01-25T05:08:01.618Z,56.13
2019-01-25T05:10:29.865Z,55.48
2019-01-25T05:12:58.082Z,56.13
2019-01-25T05:15:26.309Z,53.83
2019-01-25T05:17:55.197Z,54.80
2019-01-25T05:20:23.426Z,55.03
2019-01-25T05:22:56.048Z,54.93
2019-01-25T05:25:25.583Z,55.15
2019-01-25T05:27:53.816Z,54.20
2019-01-25T05:30:22.026Z,55.15
2019-01-25T05:32:50.524Z,53.75
2019-01-25T05:35:18.792Z,55.75
2019-01-25T05:37:47.025Z,53.42
2019-01-25T05:40:23.879Z,55.00
2019-01-25T05:42:52.160Z,56.55
2019-01-25T05:45:20.365Z,53.63
2019-01-25T05:47:48.589Z,53.33
2019-01-25T05:50:17.574Z,52.73
2019-01-25T05:52:45.806Z,53.50
2019-01-25T05:55:18.895Z,52.75
2019-01-25T05:57:47.199Z,51.37
2019-01-25T06:00:17.237Z,55.30
2019-01-25T06:02:46.120Z,55.50
2019-01-25T06:05:14.374Z,54.93
2019-01-25T06:07:44.055Z,53.65
2019-01-25T06:10:12.839Z,52.53
2019-01-25T06:12:41.091Z,54.08
2019-01-25T06:15:11.126Z,54.93
2019-01-25T06:18:00.403Z,53.47
2019-01-25T06:20:28.635Z,54.45
2019-01-25T06:22:56.859Z,50.80
2019-01-25T06:25:25.046Z,54.98
2019-01-25T06:27:53.267Z,54.63
2019-01-25T06:30:21.466Z,53.60
2019-01-25T06:32:49.673Z,53.75
2019-01-25T06:35:17.886Z,51.15
2019-01-25T06:37:46.094Z,52.93
2019-01-25T06:40:15.055Z,52.23
2019-01-25T06:42:43.254Z,50.90
2019-01-25T06:45:11.914Z,48.95
2019-01-25T06:47:59.551Z,51.08
2019-01-25T06:50:39.769Z,51.37
2019-01-25T06:53:07.967Z,52.53
2019-01-25T06:55:36.176Z,49.48
2019-01-25T06:58:08.672Z,50.50
2019-01-25T07:00:44.719Z,51.17
2019-01-25T07:03:12.930Z,49.67
2019-01-25T07:05:41.134Z,47.62
2019-01-25T07:08:11.003Z,46.33
2019-01-25T07:10:39.198Z,48.75
2019-01-25T07:13:07.410Z,49.33
2019-01-25T07:15:35.625Z,49.05
2019-01-25T07:18:03.822Z,47.07
2019-01-25T07:20:32.041Z,46.77
2019-01-25T07:23:00.238Z,48.13
2019-01-25T07:25:28.465Z,45.48
2019-01-25T07:27:56.668Z,44.75
2019-01-25T07:30:24.976Z,44.20
2019-01-25T07:32:53.373Z,46.33
2019-01-25T07:35:21.939Z,44.35
2019-01-25T07:37:50.441Z,45.98
2019-01-25T07:40:18.699Z,45.85
2019-01-25T07:42:47.012Z,44.23
2019-01-25T07:45:15.244Z,42.53
2019-01-25T07:47:43.751Z,44.65
2019-01-25T07:50:12.483Z,45.07
2019-01-25T07:52:40.687Z,44.90
2019-01-25T07:55:10.891Z,44.77
2019-01-25T07:57:39.212Z,44.75
2019-01-25T08:00:12.343Z,44.77
2019-01-25T08:02:40.563Z,41.65
2019-01-25T08:05:10.664Z,44.23
2019-01-25T08:07:39.141Z,43.63
2019-01-25T08:10:10.672Z,42.40
2019-01-25T08:12:38.874Z,42.30
2019-01-25T08:15:10.585Z,42.95
2019-01-25T08:17:38.795Z,40.15
2019-01-25T08:20:09.986Z,42.70
2019-01-25T08:22:38.270Z,43.08
2019-01-25T08:25:07.954Z,39.85
2019-01-25T08:27:36.246Z,40.45
2019-01-25T08:30:13.274Z,42.08
2019-01-25T08:32:41.534Z,44.00
2019-01-25T08:35:11.139Z,43.42
2019-01-25T08:37:39.356Z,43.90
2019-01-25T08:40:10.801Z,44.08
2019-01-25T08:42:39.001Z,43.60
2019-01-25T08:45:10.238Z,44.83
2019-01-25T08:47:38.435Z,41.83
2019-01-25T08:50:09.981Z,42.78
2019-01-25T08:52:38.311Z,45.40
2019-01-25T08:55:06.843Z,45.25
2019-01-25T08:57:35.050Z,43.75
2019-01-25T09:00:05.433Z,42.23
2019-01-25T09:02:33.654Z,40.30
2019-01-25T09:05:01.887Z,41.58
2019-01-25T09:07:30.162Z,39.15
2019-01-25T09:09:58.371Z,39.85
2019-01-25T09:12:26.604Z,39.43
2019-01-25T09:14:54.798Z,41.45
2019-01-25T09:17:22.999Z,39.23
2019-01-25T09:19:51.215Z,37.93
2019-01-25T09:22:19.436Z,39.60
2019-01-25T09:24:47.655Z,41.88
2019-01-25T09:27:15.859Z,39.27
2019-01-25T09:29:44.070Z,42.30
2019-01-25T09:32:12.270Z,37.90
2019-01-25T09:34:40.502Z,38.98
2019-01-25T09:37:08.697Z,37.08
2019-01-25T09:39:36.898Z,38.48
2019-01-25T09:42:05.132Z,38.00
2019-01-25T09:44:33.322Z,38.75
2019-01-25T09:47:01.532Z,41.92
2019-01-25T09:49:29.750Z,38.58
2019-01-25T09:51:57.942Z,39.05
2019-01-25T09:54:26.169Z,37.75
2019-01-25T09:56:54.370Z,38.48
2019-01-25T09:59:22.566Z,39.80
2019-01-25T10:01:50.815Z,39.53
2019-01-25T10:04:19.005Z,43.13
2019-01-25T10:06:47.202Z,40.60
2019-01-25T10:09:15.418Z,38.85
2019-01-25T10:11:43.625Z,37.17
2019-01-25T10:14:11.818Z,37.28
2019-01-25T10:16:40.070Z,37.40
2019-01-25T10:19:08.273Z,36.77
2019-01-25T10:21:36.466Z,35.58
2019-01-25T10:24:04.698Z,36.58
2019-01-25T10:26:32.898Z,37.70
2019-01-25T10:29:01.110Z,36.60
2019-01-25T10:31:48.755Z,38.45
2019-01-25T10:34:16.950Z,37.23
2019-01-25T10:36:45.235Z,37.42
2019-01-25T10:39:13.466Z,36.95
2019-01-25T10:41:41.663Z,37.00
2019-01-25T10:44:09.884Z,35.33
2019-01-25T10:46:38.090Z,36.23
2019-01-25T10:49:06.285Z,37.65
2019-01-25T10:51:34.494Z,36.98
2019-01-25T10:54:02.706Z,40.08
2019-01-25T10:56:30.893Z,38.20
2019-01-25T10:58:59.086Z,36.98
2019-01-25T11:01:27.317Z,38.23
2019-01-25T11:03:55.561Z,38.92
2019-01-25T11:06:23.734Z,39.67
2019-01-25T11:08:52.954Z,39.40
2019-01-25T11:11:21.338Z,38.40
2019-01-25T11:13:49.534Z,38.78
2019-01-25T11:16:17.750Z,37.90
2019-01-25T11:18:45.957Z,38.63
2019-01-25T11:21:14.162Z,38.28
2019-01-25T11:23:42.390Z,38.25
2019-01-25T11:26:10.586Z,37.42
2019-01-25T11:28:38.787Z,34.67
2019-01-25T11:31:07.026Z,36.48
2019-01-25T11:33:35.213Z,35.58
2019-01-25T11:36:03.410Z,35.50
2019-01-25T11:38:31.630Z,35.45
2019-01-25T11:40:59.838Z,34.80
2019-01-25T11:43:28.039Z,36.77
2019-01-25T11:45:56.263Z,38.08
2019-01-25T11:48:24.458Z,38.30
2019-01-25T11:50:52.670Z,40.17
2019-01-25T11:53:20.887Z,39.92
2019-01-25T11:55:49.096Z,40.48
2019-01-25T11:58:17.297Z,39.27
2019-01-25T12:00:45.881Z,39.53
2019-01-25T12:03:14.083Z,39.30
2019-01-25T12:05:42.278Z,38.33
2019-01-25T12:08:10.553Z,38.63
2019-01-25T12:10:38.747Z,38.17
2019-01-25T12:13:06.946Z,36.33
2019-01-25T12:15:35.174Z,38.30
2019-01-25T12:18:03.373Z,36.50
2019-01-25T12:20:32.614Z,36.48
2019-01-25T12:23:00.850Z,36.00
2019-01-25T12:25:29.067Z,34.85
2019-01-25T12:27:57.526Z,36.28
2019-01-25T12:30:38.168Z,35.78
2019-01-25T12:33:07.443Z,35.03
2019-01-25T12:35:37.784Z,34.10
2019-01-25T12:38:06.074Z,33.55
2019-01-25T12:40:34.527Z,34.25
2019-01-25T12:43:02.744Z,35.43
2019-01-25T12:45:31.610Z,37.13
2019-01-25T12:47:59.805Z,35.88
2019-01-25T12:50:34.054Z,37.83
2019-01-25T12:53:03.856Z,36.67
2019-01-25T12:55:32.881Z,34.18
2019-01-25T12:58:01.623Z,35.40
2019-01-25T13:00:30.443Z,35.15
2019-01-25T13:02:58.767Z,37.00
2019-01-25T13:05:27.011Z,37.23
2019-01-25T13:07:55.251Z,39.08
2019-01-25T13:10:25.594Z,36.55
2019-01-25T13:12:53.810Z,36.63
2019-01-25T13:15:22.123Z,35.40
2019-01-25T13:17:50.342Z,34.25
2019-01-25T13:20:29.100Z,34.00
2019-01-25T13:22:57.352Z,31.33
2019-01-25T13:25:25.555Z,28.57
2019-01-25T13:27:53.876Z,27.95
2019-01-25T13:30:29.688Z,27.48
2019-01-25T13:32:58.005Z,28.35
2019-01-25T13:35:26.385Z,28.65
2019-01-25T13:37:54.642Z,29.12
2019-01-25T13:40:24.847Z,29.63
2019-01-25T13:42:53.169Z,29.60
2019-01-25T13:45:22.711Z,30.95
2019-01-25T13:47:51.172Z,29.98
2019-01-25T13:50:27.309Z,31.35
2019-01-25T13:52:55.593Z,29.72
2019-01-25T13:55:23.828Z,31.75
2019-01-25T13:57:52.100Z,30.48
2019-01-25T14:00:25.104Z,27.90
2019-01-25T14:02:53.326Z,29.65
2019-01-25T14:05:21.574Z,28.47
2019-01-25T14:07:49.814Z,28.83
2019-01-25T14:10:24.457Z,27.75
2019-01-25T14:12:52.629Z,26.45
2019-01-25T14:15:20.876Z,27.60
2019-01-25T14:17:49.110Z,27.10
2019-01-25T14:20:25.645Z,27.25
2019-01-25T14:22:53.872Z,28.00
2019-01-25T14:25:22.492Z,28.32
2019-01-25T14:27:50.727Z,28.32
2019-01-25T14:30:25.231Z,27.58
2019-01-25T14:32:53.580Z,28.90
2019-01-25T14:35:21.821Z,27.27
2019-01-25T14:37:50.042Z,28.47
2019-01-25T14:40:18.249Z,27.95
2019-01-25T14:42:46.462Z,27.62
2019-01-25T14:45:18.934Z,28.55
2019-01-25T14:47:47.219Z,27.00
2019-01-25T14:50:21.363Z,26.65
2019-01-25T14:52:49.574Z,27.30
2019-01-25T14:55:17.770Z,27.13
2019-01-25T14:57:46.050Z,28.12
2019-01-25T15:00:14.956Z,28.05
2019-01-25T15:02:43.147Z,27.87
2019-01-25T15:05:14.837Z,29.20
2019-01-25T15:07:43.090Z,27.87
2019-01-25T15:10:16.315Z,28.52
2019-01-25T15:12:44.719Z,28.67
2019-01-25T15:15:14.249Z,29.25
2019-01-25T15:17:42.454Z,29.10
2019-01-25T15:20:13.878Z,29.17
2019-01-25T15:22:42.078Z,29.70
2019-01-25T15:25:10.274Z,28.95
2019-01-25T15:27:38.501Z,29.37
2019-01-25T15:30:12.554Z,29.52
2019-01-25T15:32:40.753Z,29.05
2019-01-25T15:35:11.006Z,28.00
2019-01-25T15:37:39.221Z,27.95
2019-01-25T15:40:10.364Z,28.55
2019-01-25T15:42:38.578Z,28.75
2019-01-25T15:45:10.182Z,27.80
2019-01-25T15:47:38.447Z,29.37
2019-01-25T15:50:09.926Z,28.87
2019-01-25T15:52:38.117Z,28.75
2019-01-25T15:55:07.972Z,28.45
2019-01-25T15:57:36.194Z,27.70
2019-01-25T16:00:10.486Z,27.40
2019-01-25T16:02:38.674Z,28.57
2019-01-25T16:05:08.842Z,27.22
2019-01-25T16:07:37.050Z,28.32
2019-01-25T16:10:30.618Z,28.50
2019-01-25T16:12:58.822Z,27.45
2019-01-25T16:15:28.671Z,28.87
2019-01-25T16:17:56.894Z,28.35
2019-01-25T16:20:25.105Z,28.35
2019-01-25T16:22:55.309Z,29.02
2019-01-25T16:25:31.214Z,28.17
2019-01-25T16:27:59.414Z,28.75
2019-01-25T16:30:32.906Z,29.37
2019-01-25T16:33:01.143Z,29.35
2019-01-25T16:35:29.344Z,28.90
2019-01-25T16:37:57.535Z,29.65
2019-01-25T16:40:28.003Z,29.42
2019-01-25T16:42:56.221Z,29.82
2019-01-25T16:45:29.970Z,30.10
2019-01-25T16:47:58.215Z,28.90
2019-01-25T16:50:26.425Z,29.57
2019-01-25T16:52:54.633Z,30.12
2019-01-25T16:55:22.910Z,30.23
2019-01-25T16:57:51.126Z,30.62
2019-01-25T17:00:28.482Z,31.68
2019-01-25T17:02:56.675Z,30.88
2019-01-25T17:05:24.873Z,32.05
2019-01-25T17:07:53.107Z,32.17
2019-01-25T17:10:21.306Z,31.60
2019-01-25T17:12:49.530Z,31.20
2019-01-25T17:15:17.732Z,32.08
2019-01-25T17:17:45.951Z,32.48
2019-01-25T17:20:22.538Z,31.77
2019-01-25T17:22:50.741Z,32.88
2019-01-25T17:25:18.962Z,31.33
2019-01-25T17:27:47.163Z,31.75
2019-01-25T17:30:18.615Z,32.55
2019-01-25T17:32:46.811Z,31.95
2019-01-25T17:35:15.030Z,33.13
2019-01-25T17:37:43.226Z,31.73
2019-01-25T17:40:18.230Z,32.23
2019-01-25T17:42:46.447Z,31.43
2019-01-25T17:45:15.383Z,31.00
2019-01-25T17:47:43.608Z,31.23
2019-01-25T17:50:14.516Z,31.45
2019-01-25T17:52:42.734Z,31.25
2019-01-25T17:55:16.650Z,30.92
2019-01-25T17:57:44.838Z,30.82
2019-01-25T18:00:23.132Z,30.97
2019-01-25T18:02:51.395Z,30.30
2019-01-25T18:05:19.614Z,31.43
2019-01-25T18:07:47.836Z,30.52
2019-01-25T18:10:17.211Z,29.75
2019-01-25T18:12:45.434Z,29.52
2019-01-25T18:15:15.508Z,30.23
2019-01-25T18:17:43.739Z,31.33
2019-01-25T18:20:19.339Z,31.35
2019-01-25T18:22:47.539Z,31.05
2019-01-25T18:25:19.163Z,31.50
2019-01-25T18:27:54.012Z,31.10
2019-01-25T18:30:28.871Z,31.30
2019-01-25T18:32:57.073Z,30.48
2019-01-25T18:35:25.281Z,29.80
2019-01-25T18:37:54.763Z,29.87
2019-01-25T18:40:23.079Z,29.37
2019-01-25T18:42:51.329Z,30.27
2019-01-25T18:45:19.541Z,30.15
2019-01-25T18:47:47.778Z,29.75
2019-01-25T18:50:16.381Z,29.70
2019-01-25T18:52:44.626Z,32.45
2019-01-25T18:55:18.504Z,30.25
2019-01-25T18:57:46.710Z,30.77
2019-01-25T19:00:17.395Z,30.50
2019-01-25T19:02:45.599Z,31.02
2019-01-25T19:05:13.833Z,30.95
2019-01-25T19:07:42.034Z,30.77
2019-01-25T19:10:16.703Z,31.30
2019-01-25T19:12:44.903Z,30.02
2019-01-25T19:15:16.787Z,30.23
2019-01-25T19:17:44.986Z,30.92
2019-01-25T19:20:13.949Z,31.07
2019-01-25T19:22:42.182Z,31.00
2019-01-25T19:25:11.329Z,31.37
2019-01-25T19:27:39.548Z,30.15
2019-01-25T19:30:20.542Z,30.43
2019-01-25T19:32:48.834Z,28.92
2019-01-25T19:35:17.046Z,30.65
2019-01-25T19:37:45.339Z,29.37
2019-01-25T19:40:16.861Z,30.10
2019-01-25T19:42:45.099Z,30.60
2019-01-25T19:45:13.323Z,28.23
2019-01-25T19:47:41.518Z,28.20
2019-01-25T19:50:15.303Z,26.87
2019-01-25T19:52:43.568Z,27.37
2019-01-25T19:55:14.344Z,26.10
2019-01-25T19:57:42.564Z,26.62
2019-01-25T20:00:14.176Z,26.95
2019-01-25T20:02:42.402Z,27.13
2019-01-25T20:05:14.873Z,26.05
2019-01-25T20:07:43.126Z,23.57
2019-01-25T20:10:12.258Z,24.45
2019-01-25T20:12:40.488Z,24.23
2019-01-25T20:15:19.249Z,24.30
2019-01-25T20:17:42.262Z,22.98
2019-01-25T20:20:15.931Z,23.90
2019-01-25T20:22:44.208Z,23.55
2019-01-25T20:25:12.419Z,22.30
2019-01-25T20:27:40.642Z,22.40
2019-01-25T20:30:17.730Z,22.02
2019-01-25T20:32:45.980Z,20.82
2019-01-25T20:35:17.049Z,21.02
2019-01-25T20:37:45.324Z,20.90
2019-01-25T20:40:15.723Z,20.48
2019-01-25T20:42:44.670Z,20.15
2019-01-25T20:45:27.244Z,19.98
2019-01-25T20:47:54.842Z,19.77
2019-01-25T20:50:31.214Z,19.70
2019-01-25T20:52:59.442Z,19.42
2019-01-25T20:55:27.664Z,19.17
2019-01-25T20:57:59.596Z,19.10
2019-01-25T21:00:30.070Z,18.63
2019-01-25T21:02:58.410Z,19.60
2019-01-25T21:05:26.693Z,18.85
2019-01-25T21:07:54.909Z,18.57
2019-01-25T21:10:26.294Z,18.82
2019-01-25T21:12:54.561Z,17.77
2019-01-25T21:15:24.854Z,18.25
2019-01-25T21:17:53.150Z,18.07
2019-01-25T21:20:30.188Z,17.98
2019-01-25T21:22:58.439Z,17.87
2019-01-25T21:25:26.647Z,17.12
2019-01-25T21:27:54.914Z,17.42
2019-01-25T21:30:29.298Z,17.07
2019-01-25T21:32:57.523Z,16.70
2019-01-25T21:35:25.760Z,17.42
2019-01-25T21:37:53.971Z,17.85
2019-01-25T21:40:24.431Z,17.12
2019-01-25T21:42:52.789Z,16.62
2019-01-25T21:45:23.049Z,17.30
2019-01-25T21:47:51.289Z,17.67
2019-01-25T21:50:22.002Z,17.45
2019-01-25T21:52:50.269Z,17.23
2019-01-25T21:55:18.519Z,16.10
2019-01-25T21:57:46.712Z,16.48
2019-01-25T22:00:17.613Z,16.03
2019-01-25T22:02:45.807Z,15.90
2019-01-25T22:05:14.066Z,15.10
2019-01-25T22:07:42.282Z,15.18
2019-01-25T22:10:25.221Z,15.10
2019-01-25T22:12:53.466Z,15.48
2019-01-25T22:15:21.878Z,14.30
2019-01-25T22:17:50.073Z,14.33
2019-01-25T22:20:23.189Z,14.40
2019-01-25T22:22:51.428Z,13.75
2019-01-25T22:25:19.685Z,13.70
2019-01-25T22:27:49.930Z,14.10
2019-01-25T22:30:26.130Z,13.68
2019-01-25T22:32:54.419Z,14.03
2019-01-25T22:35:22.627Z,14.15
2019-01-25T22:37:50.907Z,13.95
2019-01-25T22:40:27.753Z,14.18
2019-01-25T22:42:56.180Z,13.58
2019-01-25T22:45:26.431Z,14.10
2019-01-25T22:47:55.236Z,14.30
2019-01-25T22:50:25.605Z,14.83
2019-01-25T22:52:53.831Z,15.98
2019-01-25T22:55:22.827Z,15.43
2019-01-25T22:57:51.424Z,15.50
2019-01-25T23:00:50.277Z,15.45
2019-01-25T23:03:30.564Z,16.35
2019-01-25T23:06:18.295Z,16.05
2019-01-25T23:08:46.505Z,15.40
2019-01-25T23:11:14.711Z,16.15
2019-01-25T23:13:42.943Z,14.75
2019-01-25T23:16:11.155Z,15.75
2019-01-25T23:18:39.390Z,15.53
2019-01-25T23:21:07.640Z,16.00
2019-01-25T23:23:35.900Z,15.33
2019-01-25T23:26:04.117Z,15.53
2019-01-25T23:28:32.367Z,16.70
2019-01-25T23:31:00.574Z,15.70
2019-01-25T23:33:28.785Z,15.93
2019-01-25T23:35:57.062Z,16.35
2019-01-25T23:38:26.936Z,15.98
2019-01-25T23:40:55.145Z,15.80
2019-01-25T23:43:23.370Z,15.65
2019-01-25T23:45:51.594Z,16.15
2019-01-25T23:48:19.809Z,15.83
2019-01-25T23:50:48.045Z,15.70
2019-01-25T23:53:16.267Z,16.48
2019-01-25T23:55:44.509Z,15.90
2019-01-25T23:58:12.749Z,15.70
